Terminal Aerodrome Forecast
Issued by NWS Cleveland, OH

Home | Current Version | Previous Version | Graphics & Text | Print | Product List | Glossary On
Versions: 1 2 3 4 5 6 7 8 9 10 11 12 13 14 15 16
000
FTUS41 KCLE 161100
TAFYNG
TAF
KYNG 161120Z 1612/1712 VRB03KT P6SM SKC
     FM161400 06006KT P6SM SCT250
     FM170300 08008KT P6SM BKN250
     FM171000 12012KT P6SM SCT250=

USA.gov is the U.S. government's official web portal to all federal, state and local government web resources and services.